Terminal Aerodrome Forecast
Issued by NWS Cleveland, OH

Home | Current Version | Previous Version | Graphics & Text | Print | Product List | Glossary On
Versions: 1 2 3 4 5 6 7 8 9 10 11 12 13 14 15 16
000
FTUS41 KCLE 300433 AAA
TAFERI
TAF AMD
KERI 300433Z 3005/3024 24006KT P6SM VCSH BKN060 OVC120
      TEMPO 3005/3007 5SM -SHRA BKN035
     FM300800 26006KT P6SM SCT060 BKN200
     FM301500 26012G20KT P6SM SCT250=

USA.gov is the U.S. government's official web portal to all federal, state and local government web resources and services.